Time;durP1;ratioP1;P1;durP2;ratioP2;P2;SDS_P1;SDS_P2;PMS_P1;PMS_P2;Temp;Humidity;BMP_temperature;BMP_pressure;BME280_temperature;BME280_humidity;BME280_pressure;Samples;Min_cycle;Max_cycle;Signal;HPM_P1;HPM_P2
2022/07/13 00:00:16;;;;;;;2.70;1.40;;;;;;;;;;5087661;28;20175;-83
2022/07/13 00:02:42;;;;;;;5.23;1.60;;;15.10;99.90;;;;;;5085508;28;20580;-83
2022/07/13 00:05:08;;;;;;;2.73;1.40;;;15.10;99.90;;;;;;5087273;28;20177;-83
2022/07/13 00:07:34;;;;;;;2.00;1.50;;;15.10;99.90;;;;;;5088201;28;20202;-83
2022/07/13 00:10:00;;;;;;;4.57;1.73;;;15.10;99.90;;;;;;5088346;28;20578;-83
2022/07/13 00:12:26;;;;;;;1.90;1.63;;;15.10;99.90;;;;;;5088399;28;20197;-83
2022/07/13 00:14:52;;;;;;;2.70;1.70;;;15.10;99.90;;;;;;5086869;28;20181;-83
2022/07/13 00:17:18;;;;;;;2.63;1.60;;;15.10;99.90;;;;;;5086988;28;20244;-83
2022/07/13 00:19:43;;;;;;;1.87;1.77;;;15.00;99.90;;;;;;5086998;28;20207;-83
2022/07/13 00:22:09;;;;;;;2.13;1.50;;;15.00;99.90;;;;;;5088588;28;20185;-83
2022/07/13 00:24:35;;;;;;;1.90;1.70;;;14.90;99.90;;;;;;5088747;28;20200;-83
2022/07/13 00:27:01;;;;;;;2.27;2.07;;;;;;;;;;5092719;28;20199;-82
2022/07/13 00:29:26;;;;;;;2.57;1.60;;;14.90;99.90;;;;;;5085177;28;20169;-83
2022/07/13 00:31:52;;;;;;;1.73;1.60;;;;;;;;;;5086132;28;20174;-83
2022/07/13 00:34:18;;;;;;;5.37;1.77;;;14.90;99.90;;;;;;5085407;28;20201;-83
2022/07/13 00:36:44;;;;;;;1.50;1.40;;;14.80;99.90;;;;;;5086586;28;20201;-83
2022/07/13 00:39:10;;;;;;;2.77;1.53;;;;;;;;;;5087599;28;20189;-83
2022/07/13 00:41:35;;;;;;;3.47;1.33;;;14.80;99.90;;;;;;5087948;28;20186;-83
2022/07/13 00:44:08;;;;;;;1.97;1.80;;;14.80;99.90;;;;;;5087435;28;20189;-83
2022/07/13 00:46:35;;;;;;;2.00;1.83;;;14.80;99.90;;;;;;5087756;28;20680;-83
2022/07/13 00:49:01;;;;;;;2.40;1.73;;;14.80;99.90;;;;;;5087104;28;20520;-83
2022/07/13 00:51:28;;;;;;;1.57;1.47;;;14.80;99.90;;;;;;5085522;28;20173;-83
2022/07/13 00:53:54;;;;;;;1.73;1.63;;;14.80;99.90;;;;;;5084701;28;20197;-83
2022/07/13 00:56:20;;;;;;;3.03;1.30;;;14.70;99.90;;;;;;5083563;28;20272;-83
2022/07/13 00:58:46;;;;;;;1.93;1.70;;;14.70;99.90;;;;;;5082652;28;20199;-83
2022/07/13 01:01:12;;;;;;;1.70;1.60;;;14.70;99.90;;;;;;5081529;28;20188;-83
2022/07/13 01:03:38;;;;;;;3.47;2.40;;;;;;;;;;5080238;28;20197;-83
2022/07/13 01:06:05;;;;;;;2.10;1.73;;;14.70;99.90;;;;;;5081792;28;20197;-82
2022/07/13 01:08:33;;;;;;;1.80;1.70;;;14.60;99.90;;;;;;5079563;28;20539;-82
2022/07/13 01:10:59;;;;;;;2.10;1.73;;;14.60;99.90;;;;;;5075175;28;20658;-82
2022/07/13 01:13:25;;;;;;;2.00;1.70;;;14.60;99.90;;;;;;5078730;28;20251;-83
2022/07/13 01:15:51;;;;;;;4.13;1.67;;;14.60;99.90;;;;;;5089564;28;20233;-83
2022/07/13 01:18:17;;;;;;;2.60;1.73;;;;;;;;;;5088218;28;20188;-83
2022/07/13 01:20:43;;;;;;;3.33;1.77;;;14.60;99.90;;;;;;5088543;28;20223;-83
2022/07/13 01:23:14;;;;;;;5.40;1.67;;;14.50;99.90;;;;;;5093736;28;20208;-83
2022/07/13 01:25:41;;;;;;;2.17;1.60;;;14.50;99.90;;;;;;5092732;28;20228;-82
2022/07/13 01:28:07;;;;;;;5.47;1.63;;;14.50;99.90;;;;;;5089062;28;20200;-83
2022/07/13 01:30:33;;;;;;;6.73;1.60;;;14.50;99.90;;;;;;5085872;28;20181;-83
2022/07/13 01:32:59;;;;;;;2.10;1.73;;;;;;;;;;5087429;28;20257;-83
2022/07/13 01:35:25;;;;;;;3.70;1.83;;;14.50;99.90;;;;;;5085854;28;20185;-83
2022/07/13 01:37:52;;;;;;;1.60;1.50;;;14.50;99.90;;;;;;5086188;28;20200;-83
2022/07/13 01:40:18;;;;;;;3.13;1.50;;;14.40;99.90;;;;;;5086227;28;20591;-83
2022/07/13 01:42:47;;;;;;;2.07;1.90;;;14.50;99.90;;;;;;5085971;28;20319;-83
2022/07/13 01:45:14;;;;;;;1.93;1.57;;;14.50;99.90;;;;;;5085606;28;20184;-83
2022/07/13 01:47:42;;;;;;;2.50;1.73;;;14.50;99.90;;;;;;5085281;28;20212;-83
2022/07/13 01:50:10;;;;;;;2.37;1.43;;;14.50;99.90;;;;;;5085662;28;20272;-83
2022/07/13 01:52:36;;;;;;;2.73;1.80;;;14.50;99.90;;;;;;5085801;28;20188;-83
2022/07/13 01:55:06;;;;;;;2.00;1.80;;;14.50;99.90;;;;;;5086910;28;20172;-84
2022/07/13 01:57:33;;;;;;;2.87;1.60;;;14.40;99.90;;;;;;5086553;28;20181;-83
2022/07/13 02:00:00;;;;;;;2.70;2.10;;;14.40;99.90;;;;;;5085234;28;20181;-83
2022/07/13 02:02:26;;;;;;;1.87;1.73;;;14.30;99.90;;;;;;5086077;28;20212;-83
2022/07/13 02:04:52;;;;;;;3.27;1.73;;;14.30;99.90;;;;;;5086879;28;20179;-83
2022/07/13 02:07:18;;;;;;;2.47;1.90;;;14.30;99.90;;;;;;5087634;28;20243;-83
2022/07/13 02:09:44;;;;;;;4.33;2.03;;;;;;;;;;5086658;28;20188;-83
2022/07/13 02:12:09;;;;;;;1.60;1.50;;;14.20;99.90;;;;;;5085937;28;20188;-83
2022/07/13 02:14:35;;;;;;;3.00;1.67;;;;;;;;;;5088647;28;20173;-83
2022/07/13 02:17:01;;;;;;;3.23;1.93;;;14.20;99.90;;;;;;5091664;28;20176;-83
2022/07/13 02:19:27;;;;;;;3.37;1.90;;;14.20;99.90;;;;;;5086518;28;20226;-83
2022/07/13 02:21:53;;;;;;;2.20;1.93;;;;;;;;;;5085478;28;20207;-83
2022/07/13 02:24:18;;;;;;;2.23;1.67;;;14.20;99.90;;;;;;5085118;28;20662;-83
2022/07/13 02:26:44;;;;;;;2.47;1.80;;;;;;;;;;5086778;28;20260;-83
2022/07/13 02:29:10;;;;;;;1.97;1.40;;;14.10;99.90;;;;;;5085052;28;20172;-83
2022/07/13 02:31:35;;;;;;;1.80;1.60;;;14.00;99.90;;;;;;5086316;28;20196;-84
2022/07/13 02:34:01;;;;;;;2.07;1.90;;;14.00;99.90;;;;;;5086340;28;20197;-83
2022/07/13 02:36:27;;;;;;;3.33;2.03;;;;;;;;;;5086556;28;20200;-84
2022/07/13 02:38:53;;;;;;;2.90;1.87;;;14.00;99.90;;;;;;5086259;28;20195;-83
2022/07/13 02:41:18;;;;;;;3.57;1.87;;;13.90;99.90;;;;;;5085036;28;20189;-83
2022/07/13 02:43:44;;;;;;;2.20;2.00;;;;;;;;;;5087061;28;20189;-84
2022/07/13 02:46:10;;;;;;;2.77;1.90;;;13.90;99.90;;;;;;5084034;28;20273;-83
2022/07/13 02:48:36;;;;;;;5.30;2.17;;;13.90;99.90;;;;;;5085090;28;20176;-83
2022/07/13 02:51:02;;;;;;;4.90;1.93;;;;;;;;;;5085602;28;20229;-83
2022/07/13 02:53:28;;;;;;;2.13;1.77;;;13.80;99.90;;;;;;5084551;28;20291;-83
2022/07/13 02:55:53;;;;;;;2.10;1.90;;;13.80;99.90;;;;;;5086018;28;20176;-83
2022/07/13 02:58:19;;;;;;;1.97;1.77;;;13.80;99.90;;;;;;5085274;28;20181;-84
2022/07/13 03:00:45;;;;;;;3.27;1.80;;;;;;;;;;5085775;28;20176;-83
2022/07/13 03:03:10;;;;;;;2.77;2.10;;;13.70;99.90;;;;;;5084146;28;20207;-83
2022/07/13 03:05:37;;;;;;;2.10;1.90;;;;;;;;;;5084533;28;20196;-83
2022/07/13 03:08:02;;;;;;;2.80;1.97;;;13.70;99.90;;;;;;5086929;28;20255;-84
2022/07/13 03:10:28;;;;;;;2.60;1.77;;;;;;;;;;5090132;28;20176;-83
2022/07/13 03:12:55;;;;;;;2.67;1.77;;;13.60;99.90;;;;;;5095011;28;20208;-83
2022/07/13 03:15:21;;;;;;;3.07;1.77;;;13.60;99.90;;;;;;5091600;28;20176;-83
2022/07/13 03:17:46;;;;;;;3.27;2.07;;;13.60;99.90;;;;;;5081296;28;20181;-83
2022/07/13 03:20:12;;;;;;;3.57;1.90;;;13.60;99.90;;;;;;5080899;28;20177;-83
2022/07/13 03:22:38;;;;;;;3.43;2.17;;;13.50;99.90;;;;;;5079335;28;20207;-83
2022/07/13 03:25:05;;;;;;;3.93;2.00;;;13.50;99.90;;;;;;5077237;28;20183;-83
2022/07/13 03:27:31;;;;;;;2.70;1.87;;;13.50;99.90;;;;;;5075865;28;20220;-83
2022/07/13 03:29:56;;;;;;;3.13;1.93;;;13.50;99.90;;;;;;5073088;28;20181;-82
2022/07/13 03:32:23;;;;;;;2.90;1.80;;;;;;;;;;5074933;28;20177;-83
2022/07/13 03:34:48;;;;;;;2.27;2.07;;;13.50;99.90;;;;;;5085683;28;20195;-83
2022/07/13 03:37:14;;;;;;;2.23;1.87;;;;;;;;;;5082226;28;20264;-83
2022/07/13 03:39:40;;;;;;;2.57;2.27;;;13.50;99.90;;;;;;5081918;28;20275;-83
2022/07/13 03:42:06;;;;;;;2.33;1.70;;;;;;;;;;5083105;28;20181;-83
2022/07/13 03:44:32;;;;;;;2.00;1.90;;;13.40;99.90;;;;;;5083757;28;20223;-83
2022/07/13 03:46:58;;;;;;;3.17;1.73;;;13.40;99.90;;;;;;5082900;28;20208;-83
2022/07/13 03:49:24;;;;;;;5.77;2.00;;;13.30;99.90;;;;;;5083553;28;20201;-83
2022/07/13 03:51:50;;;;;;;2.50;1.90;;;13.30;99.90;;;;;;5082957;28;20191;-83
2022/07/13 03:54:16;;;;;;;2.07;1.80;;;;;;;;;;5082389;28;20192;-83
2022/07/13 03:56:42;;;;;;;5.50;2.27;;;;;;;;;;5084304;28;20173;-84
2022/07/13 03:59:08;;;;;;;1.93;1.73;;;;;;;;;;5082194;28;20208;-83
2022/07/13 04:01:35;;;;;;;3.47;2.00;;;;;;;;;;5082876;28;20612;-84
2022/07/13 04:04:00;;;;;;;3.20;2.03;;;13.30;99.90;;;;;;5084034;28;20197;-83
2022/07/13 04:06:26;;;;;;;2.20;1.80;;;;;;;;;;5082105;28;20209;-83
2022/07/13 04:08:52;;;;;;;6.20;2.20;;;13.40;99.90;;;;;;5082742;28;20177;-83
2022/07/13 04:11:18;;;;;;;2.10;1.90;;;;;;;;;;5083429;28;20176;-83
2022/07/13 04:13:44;;;;;;;1.97;1.80;;;13.30;99.90;;;;;;5087230;28;20232;-83
2022/07/13 04:16:10;;;;;;;3.03;2.33;;;;;;;;;;5085259;28;20565;-83
2022/07/13 04:18:36;;;;;;;2.47;2.10;;;13.40;99.90;;;;;;5084939;28;20177;-82
2022/07/13 04:21:03;;;;;;;2.20;2.00;;;13.50;99.90;;;;;;5086433;28;20575;-83
2022/07/13 04:23:29;;;;;;;2.23;2.03;;;13.50;99.90;;;;;;5085627;28;20204;-83
2022/07/13 04:25:56;;;;;;;3.60;2.07;;;13.60;99.90;;;;;;5084942;28;20201;-83
2022/07/13 04:28:21;;;;;;;4.80;2.20;;;13.50;99.90;;;;;;5085471;28;20177;-83
2022/07/13 04:30:47;;;;;;;6.37;2.00;;;;;;;;;;5087316;28;20177;-83
2022/07/13 04:33:14;;;;;;;2.20;2.00;;;13.60;99.90;;;;;;5086674;28;20654;-83
2022/07/13 04:35:40;;;;;;;2.43;2.23;;;13.80;99.90;;;;;;5085741;28;20307;-83
2022/07/13 04:38:06;;;;;;;2.67;2.00;;;;;;;;;;5086002;28;20190;-83
2022/07/13 04:40:32;;;;;;;2.83;2.20;;;13.70;99.90;;;;;;5086197;28;20177;-83
2022/07/13 04:42:57;;;;;;;4.10;2.13;;;13.70;99.90;;;;;;5085380;28;20205;-83
2022/07/13 04:45:23;;;;;;;3.27;2.00;;;;;;;;;;5085303;28;20196;-83
2022/07/13 04:47:49;;;;;;;2.30;2.10;;;13.80;99.90;;;;;;5085094;28;20303;-83
2022/07/13 04:50:16;;;;;;;2.63;2.03;;;;;;;;;;5085754;28;20223;-84
2022/07/13 04:52:42;;;;;;;2.10;2.00;;;13.90;99.90;;;;;;5085947;28;20260;-85
2022/07/13 04:55:09;;;;;;;2.80;2.53;;;13.70;99.90;;;;;;5087044;28;20195;-85
2022/07/13 04:57:35;;;;;;;2.30;2.00;;;14.20;99.90;;;;;;5086399;28;20544;-85
2022/07/13 05:00:01;;;;;;;1.70;1.50;;;14.20;99.90;;;;;;5086196;28;20212;-85
2022/07/13 05:02:28;;;;;;;3.67;2.00;;;14.00;99.90;;;;;;5084270;28;20269;-85
2022/07/13 05:04:53;;;;;;;2.27;1.90;;;14.10;99.90;;;;;;5084763;28;20177;-86
2022/07/13 05:07:19;;;;;;;1.90;1.80;;;14.20;99.90;;;;;;5085075;28;20353;-86
2022/07/13 05:09:46;;;;;;;6.00;1.90;;;;;;;;;;5084680;28;20219;-84
2022/07/13 05:12:12;;;;;;;3.50;2.20;;;;;;;;;;5086164;28;20197;-86
2022/07/13 05:14:38;;;;;;;2.17;2.00;;;;;;;;;;5083949;28;20539;-85
2022/07/13 05:17:04;;;;;;;4.10;2.03;;;;;;;;;;5086346;28;20174;-85
2022/07/13 05:19:30;;;;;;;2.40;1.90;;;;;;;;;;5084681;28;20177;-85
2022/07/13 05:21:56;;;;;;;3.17;2.20;;;14.60;99.90;;;;;;5086292;28;20197;-85
2022/07/13 05:24:22;;;;;;;7.07;2.10;;;;;;;;;;5082306;28;20268;-84
2022/07/13 05:26:47;;;;;;;1.97;1.77;;;14.70;99.90;;;;;;5080590;28;20212;-85
2022/07/13 05:29:13;;;;;;;1.83;1.67;;;;;;;;;;5081681;28;20177;-85
2022/07/13 05:31:39;;;;;;;4.27;2.10;;;;;;;;;;5081076;28;20182;-84
2022/07/13 05:34:05;;;;;;;3.30;2.30;;;15.20;99.90;;;;;;5077999;28;20206;-84
2022/07/13 05:36:31;;;;;;;2.30;1.57;;;15.00;99.90;;;;;;5079315;28;20531;-84
2022/07/13 05:38:58;;;;;;;2.30;1.97;;;;;;;;;;5078455;28;20643;-84
2022/07/13 05:41:23;;;;;;;3.73;2.10;;;15.20;99.90;;;;;;5079353;28;20180;-84
2022/07/13 05:43:49;;;;;;;2.17;1.90;;;15.40;99.90;;;;;;5076539;28;20220;-84
2022/07/13 05:46:15;;;;;;;3.23;2.00;;;;;;;;;;5076349;28;20687;-84
2022/07/13 05:48:40;;;;;;;3.23;1.87;;;15.40;99.90;;;;;;5075863;28;20226;-85
2022/07/13 05:51:07;;;;;;;2.50;1.70;;;15.50;99.90;;;;;;5075176;28;20201;-85
2022/07/13 05:53:33;;;;;;;1.83;1.63;;;;;;;;;;5076360;28;20189;-84
2022/07/13 05:55:59;;;;;;;2.27;1.80;;;15.60;99.90;;;;;;5081245;28;20551;-85
2022/07/13 05:58:25;;;;;;;2.60;1.57;;;;;;;;;;5082050;28;20271;-85
2022/07/13 06:00:51;;;;;;;2.33;1.60;;;15.80;99.90;;;;;;5084072;28;20181;-85
2022/07/13 06:03:17;;;;;;;1.90;1.53;;;15.90;99.90;;;;;;5085953;28;20282;-85
2022/07/13 06:05:42;;;;;;;1.50;1.40;;;15.90;99.90;;;;;;5086693;28;20181;-86
2022/07/13 06:08:08;;;;;;;2.50;1.60;;;16.00;99.90;;;;;;5085409;28;20169;-85
2022/07/13 06:10:34;;;;;;;2.23;1.70;;;16.10;99.90;;;;;;5085008;28;20271;-84
2022/07/13 06:13:00;;;;;;;3.27;1.87;;;16.30;99.90;;;;;;5086121;28;20590;-84
2022/07/13 06:15:25;;;;;;;2.50;2.00;;;16.40;99.90;;;;;;5084815;28;20165;-83
2022/07/13 06:17:51;;;;;;;4.60;1.73;;;;;;;;;;5080580;28;20532;-84
2022/07/13 06:20:17;;;;;;;2.33;1.50;;;16.50;99.90;;;;;;5083434;28;20637;-84
2022/07/13 06:23:09;;;;;;;3.83;1.60;;;;;;;;;;5082045;28;20278;-84
2022/07/13 06:25:29;;;;;;;2.60;1.63;;;16.70;99.90;;;;;;5081622;28;20193;-83
2022/07/13 06:27:55;;;;;;;2.90;1.57;;;;;;;;;;5080571;28;20209;-84
2022/07/13 06:30:20;;;;;;;6.43;1.90;;;16.90;99.90;;;;;;5082058;28;20171;-84
2022/07/13 06:32:46;;;;;;;1.93;1.43;;;17.10;99.90;;;;;;5081051;28;20199;-83
2022/07/13 06:35:12;;;;;;;3.67;1.50;;;;;;;;;;5080532;28;20184;-84
2022/07/13 06:37:38;;;;;;;2.93;1.40;;;17.20;99.90;;;;;;5080491;28;20342;-84
2022/07/13 06:40:04;;;;;;;1.50;1.40;;;17.40;99.90;;;;;;5080554;28;20207;-84
2022/07/13 06:42:30;;;;;;;1.93;1.40;;;17.50;99.90;;;;;;5079652;28;20299;-84
2022/07/13 06:44:56;;;;;;;2.63;1.50;;;17.60;99.90;;;;;;5080581;28;20222;-84
2022/07/13 06:47:22;;;;;;;4.80;1.70;;;;;;;;;;5080361;28;20214;-84
2022/07/13 06:49:47;;;;;;;1.80;1.50;;;17.80;99.90;;;;;;5082860;28;20178;-84
2022/07/13 06:52:13;;;;;;;3.50;1.40;;;17.90;99.90;;;;;;5082198;28;20209;-84
2022/07/13 06:54:39;;;;;;;3.27;1.50;;;;;;;;;;5082364;28;20193;-84
2022/07/13 06:57:05;;;;;;;2.83;1.37;;;18.10;99.90;;;;;;5081148;28;20707;-84
2022/07/13 06:59:30;;;;;;;1.77;1.20;;;18.20;99.90;;;;;;5081372;28;20201;-84
2022/07/13 07:01:56;;;;;;;4.00;1.43;;;18.30;99.90;;;;;;5081569;28;20188;-85
2022/07/13 07:04:22;;;;;;;1.90;1.20;;;18.40;99.90;;;;;;5083012;28;20232;-84
2022/07/13 07:06:47;;;;;;;4.37;1.40;;;18.50;99.90;;;;;;5081645;28;20214;-85
2022/07/13 07:09:13;;;;;;;2.80;1.33;;;18.80;99.90;;;;;;5082147;28;20182;-85
2022/07/13 07:11:38;;;;;;;2.83;1.40;;;18.90;99.90;;;;;;5082528;28;20690;-84
2022/07/13 07:14:04;;;;;;;2.17;1.23;;;19.10;99.90;;;;;;5082237;28;20353;-85
2022/07/13 07:16:30;;;;;;;1.57;1.17;;;19.60;99.90;;;;;;5082298;28;20175;-84
2022/07/13 07:18:55;;;;;;;4.90;1.20;;;19.60;99.90;;;;;;5080950;28;20178;-85
2022/07/13 07:21:21;;;;;;;1.50;1.20;;;;;;;;;;5081741;28;20186;-85
2022/07/13 07:23:47;;;;;;;2.47;1.00;;;20.20;99.90;;;;;;5081518;28;20767;-85
2022/07/13 07:26:13;;;;;;;1.53;1.07;;;20.20;99.90;;;;;;5082058;28;20285;-85
2022/07/13 07:28:39;;;;;;;2.00;1.00;;;20.40;99.90;;;;;;5083246;28;20251;-85
2022/07/13 07:31:08;;;;;;;1.57;1.00;;;20.50;99.90;;;;;;5079945;28;20250;-85
2022/07/13 07:33:33;;;;;;;2.13;1.10;;;20.70;99.90;;;;;;5079912;28;20247;-85
2022/07/13 07:35:59;;;;;;;1.53;0.87;;;20.90;99.90;;;;;;5079797;28;20182;-85
2022/07/13 07:38:25;;;;;;;2.97;1.40;;;20.90;99.90;;;;;;5080501;28;20571;-85
2022/07/13 07:40:50;;;;;;;1.53;1.20;;;21.10;99.90;;;;;;5078928;28;20514;-84
2022/07/13 07:43:16;;;;;;;1.30;0.90;;;21.20;99.90;;;;;;5079232;28;20208;-85
2022/07/13 07:45:42;;;;;;;1.40;0.97;;;21.40;99.90;;;;;;5078822;28;20733;-85
2022/07/13 07:48:08;;;;;;;1.77;0.90;;;21.50;99.90;;;;;;5078549;28;20176;-84
2022/07/13 07:50:33;;;;;;;0.80;0.80;;;21.60;99.90;;;;;;5084247;28;20173;-85
2022/07/13 07:52:59;;;;;;;2.00;0.90;;;21.70;99.90;;;;;;5089811;28;20196;-85
2022/07/13 07:55:25;;;;;;;1.20;1.10;;;21.80;99.90;;;;;;5087776;28;20187;-85
2022/07/13 07:57:51;;;;;;;1.60;0.63;;;21.90;99.90;;;;;;5087506;28;20187;-85
2022/07/13 08:00:18;;;;;;;3.43;1.03;;;21.90;99.90;;;;;;5085071;28;20185;-84
2022/07/13 08:02:44;;;;;;;2.10;1.10;;;22.10;99.90;;;;;;5082332;28;20200;-85
2022/07/13 08:05:10;;;;;;;4.30;0.80;;;22.10;99.90;;;;;;5083130;28;20185;-84
2022/07/13 08:07:42;;;;;;;1.93;0.73;;;22.20;99.90;;;;;;5081583;28;20211;-85
2022/07/13 08:10:08;;;;;;;0.90;0.80;;;22.40;99.90;;;;;;5083569;28;20165;-85
2022/07/13 08:12:34;;;;;;;2.03;0.90;;;22.60;99.90;;;;;;5082158;28;20649;-85
2022/07/13 08:15:00;;;;;;;3.33;1.00;;;22.80;99.90;;;;;;5083939;28;20176;-85
2022/07/13 08:17:26;;;;;;;1.10;0.70;;;22.90;99.90;;;;;;5081134;28;20589;-85
2022/07/13 08:19:52;;;;;;;0.70;0.60;;;23.20;99.90;;;;;;5081393;28;20177;-85
2022/07/13 08:22:18;;;;;;;1.03;0.80;;;23.40;99.90;;;;;;5081478;28;20259;-85
2022/07/13 08:24:43;;;;;;;0.80;0.80;;;23.50;99.90;;;;;;5080906;28;20226;-85
2022/07/13 08:27:09;;;;;;;3.00;0.70;;;23.60;99.90;;;;;;5079981;28;20750;-83
2022/07/13 08:29:35;;;;;;;1.57;0.90;;;23.70;99.80;;;;;;5079980;28;20173;-83
2022/07/13 08:32:01;;;;;;;2.13;0.80;;;23.80;97.00;;;;;;5079906;28;20203;-83
2022/07/13 08:40:04;;;;;;;0.70;0.60;;;23.90;99.90;;;;;;5080504;28;20196;-83
2022/07/13 08:42:30;;;;;;;4.20;1.80;;;24.00;97.00;;;;;;5077547;28;20208;-85
2022/07/13 08:44:56;;;;;;;0.90;0.70;;;24.00;95.70;;;;;;5076698;28;20177;-85
2022/07/13 08:47:22;;;;;;;1.10;0.80;;;24.20;97.00;;;;;;5084810;28;20711;-86
2022/07/13 08:49:52;;;;;;;0.70;0.70;;;24.30;97.00;;;;;;5086831;28;20627;-86
2022/07/13 08:52:18;;;;;;;0.70;0.70;;;24.50;95.10;;;;;;5085753;28;20716;-85
2022/07/13 08:54:44;;;;;;;1.37;0.80;;;24.50;94.60;;;;;;5086081;28;20201;-84
2022/07/13 08:57:10;;;;;;;1.60;0.83;;;24.60;91.60;;;;;;5088432;28;20614;-83
2022/07/13 08:59:37;;;;;;;0.97;0.87;;;24.70;93.30;;;;;;5086435;28;20178;-84
2022/07/13 09:02:02;;;;;;;4.60;0.90;;;24.90;89.00;;;;;;5086053;28;20187;-83
2022/07/13 09:04:28;;;;;;;5.00;1.23;;;25.10;92.40;;;;;;5087518;28;20194;-84
2022/07/13 09:06:56;;;;;;;4.43;0.80;;;25.40;92.60;;;;;;5087626;28;20674;-86
2022/07/13 09:09:28;;;;;;;0.90;0.70;;;25.60;96.20;;;;;;5084850;28;20218;-86
2022/07/13 09:12:12;;;;;;;0.70;0.70;;;25.70;94.80;;;;;;5088791;28;20175;-84
2022/07/13 09:14:38;;;;;;;0.80;0.70;;;25.80;91.60;;;;;;5086330;28;20197;-85
2022/07/13 09:17:04;;;;;;;1.40;0.80;;;25.90;90.70;;;;;;5086267;28;20185;-85
2022/07/13 09:19:39;;;;;;;1.33;0.70;;;26.00;91.10;;;;;;5088631;28;20204;-85
2022/07/13 09:22:11;;;;;;;0.70;0.70;;;26.00;87.50;;;;;;5087017;28;20180;-85
2022/07/13 09:24:47;;;;;;;0.60;0.60;;;25.90;84.60;;;;;;5088113;28;20185;-86
2022/07/13 09:27:16;;;;;;;2.13;0.80;;;26.00;85.90;;;;;;5087358;28;20208;-86
2022/07/13 09:29:42;;;;;;;0.90;0.80;;;26.00;90.40;;;;;;5086491;28;20659;-86
2022/07/13 09:32:11;;;;;;;2.20;0.80;;;26.30;90.80;;;;;;5088990;28;20188;-86
2022/07/13 09:34:51;;;;;;;2.47;0.70;;;26.50;91.30;;;;;;5089182;28;20240;-86
2022/07/13 09:37:31;;;;;;;2.40;0.73;;;26.80;88.70;;;;;;5087757;28;20576;-86
2022/07/13 09:39:59;;;;;;;3.27;0.60;;;26.90;90.90;;;;;;5087806;28;20187;-85
2022/07/13 09:42:30;;;;;;;0.63;0.53;;;27.00;90.90;;;;;;5087320;28;20255;-86
2022/07/13 09:47:46;;;;;;;1.60;0.70;;;27.20;85.40;;;;;;5086178;28;20198;-86
2022/07/13 09:50:12;;;;;;;1.63;0.77;;;27.40;86.00;;;;;;5089205;28;20244;-84
2022/07/13 09:52:38;;;;;;;0.60;0.60;;;27.40;85.60;;;;;;5087430;28;20188;-86
2022/07/13 09:55:06;;;;;;;1.40;0.63;;;27.50;84.70;;;;;;5088332;28;20180;-84
2022/07/13 09:57:35;;;;;;;2.40;0.70;;;27.50;82.10;;;;;;5089420;28;20189;-84
2022/07/13 10:00:02;;;;;;;3.07;1.17;;;27.50;79.60;;;;;;5090034;28;20188;-84
2022/07/13 10:02:29;;;;;;;0.70;0.50;;;27.70;79.40;;;;;;5092101;28;20176;-86
2022/07/13 10:04:57;;;;;;;2.53;0.70;;;27.80;80.70;;;;;;5091948;28;20169;-84
2022/07/13 10:07:23;;;;;;;14.60;1.17;;;27.90;80.10;;;;;;5089057;28;20201;-84
2022/07/13 10:09:50;;;;;;;2.00;0.80;;;28.00;83.60;;;;;;5086569;28;20264;-83
2022/07/13 10:12:15;;;;;;;0.90;0.50;;;28.10;87.90;;;;;;5084205;28;20526;-83
2022/07/13 10:14:41;;;;;;;0.50;0.50;;;28.20;82.60;;;;;;5087979;28;20169;-83
2022/07/13 10:17:11;;;;;;;1.40;0.80;;;28.30;84.00;;;;;;5086122;28;20181;-84
2022/07/13 10:20:08;;;;;;;0.97;0.67;;;28.30;80.50;;;;;;5085907;28;20207;-84
2022/07/13 10:22:48;;;;;;;0.83;0.70;;;28.50;82.80;;;;;;5083210;28;20243;-84
2022/07/13 10:25:18;;;;;;;1.77;0.50;;;28.70;83.00;;;;;;5087588;28;20164;-86
2022/07/13 10:27:45;;;;;;;1.50;0.60;;;28.90;76.40;;;;;;5084277;28;20197;-86
2022/07/13 10:30:24;;;;;;;0.50;0.43;;;29.00;80.00;;;;;;5085486;28;20200;-86
2022/07/13 10:32:50;;;;;;;0.87;0.53;;;28.90;72.60;;;;;;5084811;28;20200;-87
2022/07/13 10:35:17;;;;;;;0.70;0.60;;;29.00;72.20;;;;;;5083908;28;20173;-84
2022/07/13 10:38:03;;;;;;;0.83;0.63;;;29.10;72.70;;;;;;5084443;28;20234;-84
2022/07/13 10:40:34;;;;;;;2.17;0.60;;;29.30;78.40;;;;;;5083762;28;20333;-84
2022/07/13 10:43:01;;;;;;;1.33;0.57;;;29.40;71.90;;;;;;5084667;28;20233;-84
2022/07/13 10:45:38;;;;;;;1.67;0.50;;;29.40;75.70;;;;;;5083566;28;20647;-84
2022/07/13 10:48:06;;;;;;;2.17;0.60;;;29.50;73.30;;;;;;5081988;28;20189;-83
2022/07/13 10:50:44;;;;;;;0.57;0.40;;;29.40;63.60;;;;;;5080891;28;20170;-84
2022/07/13 10:53:10;;;;;;;2.93;0.60;;;29.50;72.10;;;;;;5079369;28;20199;-84
2022/07/13 10:55:36;;;;;;;0.60;0.60;;;29.70;68.10;;;;;;5082376;28;20251;-84
2022/07/13 10:58:34;;;;;;;1.87;0.60;;;29.60;69.60;;;;;;5079405;28;20184;-83
2022/07/13 11:01:06;;;;;;;2.23;0.67;;;29.40;61.70;;;;;;5023306;28;20203;-84
2022/07/13 11:03:44;;;;;;;3.10;0.70;;;29.40;70.40;;;;;;5076977;28;20819;-83
2022/07/13 11:06:17;;;;;;;1.77;0.70;;;29.60;67.50;;;;;;5075598;28;20190;-83
2022/07/13 11:08:43;;;;;;;0.80;0.60;;;29.80;79.90;;;;;;5074143;28;20180;-82
2022/07/13 11:11:17;;;;;;;1.60;0.97;;;30.00;72.80;;;;;;5083376;28;20180;-84
2022/07/13 11:13:45;;;;;;;1.23;0.70;;;30.10;68.00;;;;;;5086180;28;20222;-84
2022/07/13 11:16:12;;;;;;;3.60;0.60;;;30.30;72.50;;;;;;5086957;28;20627;-84
2022/07/13 11:18:40;;;;;;;0.90;0.50;;;30.50;66.90;;;;;;5086988;28;20186;-84
2022/07/13 11:21:18;;;;;;;0.53;0.53;;;30.70;68.50;;;;;;5086791;28;20186;-84
2022/07/13 11:26:47;;;;;;;1.83;0.43;;;30.90;67.00;;;;;;5086821;28;20257;-85
2022/07/13 11:29:27;;;;;;;3.13;0.70;;;30.90;58.20;;;;;;5084051;28;20325;-86
2022/07/13 11:31:57;;;;;;;2.20;0.60;;;30.90;65.60;;;;;;5088229;28;20167;-85
2022/07/13 11:34:24;;;;;;;1.57;0.60;;;31.00;63.00;;;;;;5088306;28;20254;-85
2022/07/13 11:36:52;;;;;;;1.57;0.70;;;31.20;69.30;;;;;;5088909;28;20184;-86
2022/07/13 11:39:25;;;;;;;2.13;0.60;;;31.50;66.90;;;;;;5086912;28;20200;-86
2022/07/13 11:41:51;;;;;;;1.77;0.63;;;31.50;62.30;;;;;;5083957;28;20188;-85
2022/07/13 11:44:22;;;;;;;0.73;0.63;;;31.50;66.70;;;;;;5087115;28;20207;-85
2022/07/13 11:46:48;;;;;;;0.77;0.60;;;31.40;63.20;;;;;;5087878;28;20197;-85
2022/07/13 11:49:13;;;;;;;0.93;0.60;;;31.40;67.40;;;;;;5087790;28;20208;-85
2022/07/13 11:51:44;;;;;;;1.37;0.60;;;31.40;55.10;;;;;;5087866;28;20176;-86
2022/07/13 11:54:14;;;;;;;1.27;0.90;;;31.20;66.90;;;;;;5088977;28;20199;-85
2022/07/13 11:56:54;;;;;;;1.87;1.00;;;31.40;65.60;;;;;;5091742;28;20188;-86
2022/07/13 11:59:42;;;;;;;1.57;0.70;;;31.60;61.70;;;;;;5088375;28;20188;-85
2022/07/13 12:02:14;;;;;;;1.23;0.70;;;31.60;57.80;;;;;;5082417;28;20260;-85
2022/07/13 12:04:41;;;;;;;0.83;0.73;;;31.60;62.20;;;;;;5083448;28;20267;-85
2022/07/13 12:07:15;;;;;;;1.03;0.80;;;31.60;55.90;;;;;;5082042;28;20284;-85
2022/07/13 12:10:01;;;;;;;0.83;0.70;;;31.40;54.20;;;;;;5083392;28;20519;-85
2022/07/13 12:12:35;;;;;;;2.00;0.70;;;31.30;54.60;;;;;;5082257;28;20643;-86
2022/07/13 12:15:01;;;;;;;1.40;0.80;;;31.30;63.00;;;;;;5079070;28;20657;-85
2022/07/13 12:17:28;;;;;;;1.57;0.90;;;31.20;59.00;;;;;;5077044;28;20209;-85
2022/07/13 12:20:36;;;;;;;1.13;0.80;;;31.20;56.70;;;;;;5078587;28;20253;-86
2022/07/13 12:23:05;;;;;;;0.80;0.80;;;31.30;67.00;;;;;;4998543;28;20715;-86
2022/07/13 12:25:33;;;;;;;1.47;0.77;;;31.30;57.50;;;;;;5001730;28;20245;-85
2022/07/13 12:28:00;;;;;;;0.70;0.60;;;31.30;55.30;;;;;;5050210;28;20274;-86
2022/07/13 12:30:31;;;;;;;1.20;0.80;;;31.40;56.70;;;;;;5082564;28;20175;-85
2022/07/13 12:33:10;;;;;;;0.93;0.60;;;31.50;57.30;;;;;;5084216;28;20194;-85
2022/07/13 12:35:38;;;;;;;2.10;0.70;;;31.70;54.10;;;;;;5082212;28;20606;-85
2022/07/13 12:38:08;;;;;;;0.87;0.50;;;31.70;53.90;;;;;;5082749;28;20297;-85
2022/07/13 12:40:54;;;;;;;1.47;0.73;;;31.40;48.40;;;;;;5085866;28;20181;-86
2022/07/13 12:43:25;;;;;;;0.80;0.80;;;31.50;55.60;;;;;;5083436;28;20567;-85
2022/07/13 12:46:04;;;;;;;0.70;0.70;;;31.60;55.20;;;;;;5087465;28;20180;-84
2022/07/13 12:48:34;;;;;;;1.57;0.70;;;31.80;57.30;;;;;;5083038;28;20587;-83
2022/07/13 12:51:05;;;;;;;0.73;0.73;;;31.70;56.20;;;;;;5082867;28;20175;-83
2022/07/13 12:53:56;;;;;;;1.07;0.70;;;31.40;52.80;;;;;;5084034;28;20186;-83
2022/07/13 12:56:44;;;;;;;0.80;0.60;;;31.40;56.80;;;;;;5080258;28;20189;-85
2022/07/13 12:59:11;;;;;;;0.83;0.70;;;31.30;56.70;;;;;;5080880;28;20183;-82
2022/07/13 13:01:38;;;;;;;1.97;0.57;;;31.00;50.30;;;;;;5081763;28;20180;-84
2022/07/13 13:04:07;;;;;;;0.63;0.63;;;31.20;52.80;;;;;;5080561;28;20193;-83
2022/07/13 13:06:33;;;;;;;2.87;0.70;;;31.50;52.60;;;;;;5082152;28;20279;-83
2022/07/13 13:09:07;;;;;;;1.13;0.83;;;31.90;52.80;;;;;;5082172;28;20180;-83
2022/07/13 13:11:34;;;;;;;2.30;0.70;;;32.20;58.30;;;;;;5080530;28;20178;-83
2022/07/13 13:14:00;;;;;;;5.83;0.70;;;32.40;51.00;;;;;;5079809;28;20278;-82
2022/07/13 13:16:25;;;;;;;1.67;0.60;;;32.50;49.50;;;;;;5077987;28;20239;-83